createdAt,value
2023-03-22T00:02:20.392Z,6070.83057
2023-03-22T00:17:22.807Z,4979.37988
2023-03-22T00:32:25.148Z,992.58032
2023-03-22T00:47:27.421Z,859.78394
2023-03-22T01:02:29.657Z,724.07959
2023-03-22T01:17:32.105Z,587.40594
2023-03-22T01:32:34.276Z,434.25391
2023-03-22T01:47:36.569Z,252.02235
2023-03-22T02:02:39.074Z,89.17714
2023-03-22T02:17:41.344Z,11.6318
2023-03-22T02:32:43.599Z,0.96932
2023-03-22T02:47:45.929Z,0
2023-03-22T03:02:48.197Z,0
2023-03-22T03:17:50.481Z,0
2023-03-22T03:32:52.976Z,0
2023-03-22T03:47:55.282Z,0
2023-03-22T04:02:57.789Z,0
2023-03-22T04:18:00.130Z,0
2023-03-22T04:33:02.450Z,0
2023-03-22T04:48:04.723Z,0
2023-03-22T05:03:07.058Z,0
2023-03-22T05:18:09.408Z,0
2023-03-22T05:33:11.633Z,0
2023-03-22T05:48:13.989Z,0
2023-03-22T06:03:16.971Z,0
2023-03-22T06:18:19.391Z,0
2023-03-22T06:33:21.671Z,0
2023-03-22T06:48:24.039Z,0
2023-03-22T07:03:26.388Z,0
2023-03-22T07:18:28.665Z,0
2023-03-22T07:33:30.953Z,0
2023-03-22T07:48:33.163Z,0
2023-03-22T08:03:35.440Z,0
2023-03-22T08:18:37.697Z,0
2023-03-22T08:33:39.898Z,0
2023-03-22T08:48:42.137Z,0
2023-03-22T09:03:44.448Z,0
2023-03-22T09:18:46.695Z,0
2023-03-22T09:33:48.973Z,0
2023-03-22T09:48:51.200Z,0
2023-03-22T10:03:53.558Z,0
2023-03-22T10:18:55.843Z,0
2023-03-22T10:33:58.180Z,0
2023-03-22T10:49:00.463Z,0
2023-03-22T11:04:02.705Z,0
2023-03-22T11:19:04.894Z,0
2023-03-22T11:34:07.171Z,0
2023-03-22T11:49:09.470Z,0
2023-03-22T12:04:11.791Z,0
2023-03-22T12:19:13.990Z,0
2023-03-22T12:34:16.266Z,0
2023-03-22T12:49:18.618Z,0
2023-03-22T13:04:20.966Z,0
2023-03-22T13:19:23.250Z,0.96932
2023-03-22T13:34:25.546Z,13.57043
2023-03-22T13:49:27.967Z,96.93167
2023-03-22T14:04:30.258Z,275.28595
2023-03-22T14:19:32.510Z,484.65836
2023-03-22T15:04:37.872Z,37768.45703
2023-03-22T15:19:39.911Z,10724.52051
2023-03-22T15:34:42.035Z,9035.9707
2023-03-22T15:49:44.088Z,21305.58203
2023-03-22T16:04:46.065Z,18538.18164
2023-03-22T16:19:48.073Z,45216.6875
2023-03-22T16:34:50.219Z,25269.11719
2023-03-22T16:49:52.422Z,16239.93262
2023-03-22T17:04:54.509Z,9707.70703
2023-03-22T17:19:57.627Z,7384.25488
2023-03-22T17:34:59.723Z,7920.28711
2023-03-22T17:50:02.093Z,8403.97559
2023-03-22T18:05:04.175Z,7530.62158
2023-03-22T18:35:11.410Z,6245.30762
2023-03-22T18:50:13.483Z,6555.48877
2023-03-22T19:05:15.460Z,6407.18359
2023-03-22T19:20:17.514Z,6183.27148
2023-03-22T19:35:19.565Z,6845.31445
2023-03-22T19:50:21.742Z,6986.83496
2023-03-22T20:05:24.040Z,5902.16943
2023-03-22T20:20:26.258Z,5340.93506
2023-03-22T20:35:28.254Z,5632.69971
2023-03-22T20:50:30.312Z,6419.78467
2023-03-22T21:05:32.490Z,8534.83398
2023-03-22T21:20:34.640Z,8336.12402
2023-03-22T21:35:36.925Z,8772.31641
2023-03-22T21:50:38.996Z,9807.54688
2023-03-22T22:05:41.217Z,10008.19531
2023-03-22T22:20:43.375Z,9626.28418
2023-03-22T22:35:45.489Z,9523.53711
2023-03-22T22:50:47.478Z,10313.53027
2023-03-22T23:05:49.872Z,10129.35938
2023-03-22T23:20:51.928Z,8739.35938
2023-03-22T23:35:53.963Z,7678.92725
2023-03-22T23:50:56.069Z,7216.56299
